createdAt,value
2019-02-07T00:01:15.783Z,36.73
2019-02-07T00:02:21.636Z,31.65
2019-02-07T00:03:26.837Z,31.50
2019-02-07T00:04:31.869Z,32.90
2019-02-07T00:05:36.909Z,35.55
2019-02-07T00:06:42.001Z,33.55
2019-02-07T00:07:47.086Z,32.35
2019-02-07T00:08:52.488Z,30.60
2019-02-07T00:09:57.517Z,25.95
2019-02-07T00:11:02.531Z,34.80
2019-02-07T00:12:07.649Z,33.40
2019-02-07T00:13:13.756Z,31.57
2019-02-07T00:14:18.843Z,34.18
2019-02-07T00:15:23.963Z,32.63
2019-02-07T00:16:30.061Z,32.98
2019-02-07T00:17:35.110Z,36.20
2019-02-07T00:18:40.202Z,35.60
2019-02-07T00:19:45.297Z,36.15
2019-02-07T00:20:50.405Z,32.63
2019-02-07T00:21:55.811Z,33.53
2019-02-07T00:23:01.297Z,33.78
2019-02-07T00:24:06.822Z,33.55
2019-02-07T00:25:12.320Z,38.75
2019-02-07T00:26:17.407Z,35.90
2019-02-07T00:27:22.521Z,33.85
2019-02-07T00:28:27.543Z,33.90
2019-02-07T00:29:32.923Z,33.85
2019-02-07T00:30:37.950Z,32.13
2019-02-07T00:31:42.999Z,32.38
2019-02-07T00:32:47.981Z,33.00
2019-02-07T00:33:53.045Z,33.18
2019-02-07T00:34:58.119Z,35.23
2019-02-07T00:36:03.399Z,31.30
2019-02-07T00:37:09.608Z,29.42
2019-02-07T00:38:14.750Z,31.65
2019-02-07T00:39:19.836Z,30.90
2019-02-07T00:40:24.852Z,33.98
2019-02-07T00:41:29.965Z,32.10
2019-02-07T00:42:35.053Z,34.05
2019-02-07T00:43:40.355Z,29.15
2019-02-07T00:44:50.512Z,30.08
2019-02-07T00:45:52.155Z,34.40
2019-02-07T00:46:57.170Z,33.65
2019-02-07T00:48:02.207Z,33.00
2019-02-07T00:49:08.275Z,30.30
2019-02-07T00:50:14.044Z,33.33
2019-02-07T00:51:19.149Z,33.73
2019-02-07T00:52:24.263Z,33.83
2019-02-07T00:53:29.339Z,32.80
2019-02-07T00:54:34.356Z,33.98
2019-02-07T00:55:39.536Z,31.73
2019-02-07T00:56:44.545Z,33.98
2019-02-07T00:57:49.673Z,33.60
2019-02-07T00:58:54.758Z,36.38
2019-02-07T00:59:59.825Z,35.58
2019-02-07T01:01:06.709Z,33.98
2019-02-07T01:02:11.841Z,34.85
2019-02-07T01:03:17.920Z,35.35
2019-02-07T01:04:23.037Z,36.45
2019-02-07T01:05:28.500Z,34.15
2019-02-07T01:06:34.029Z,34.55
2019-02-07T01:07:39.051Z,38.83
2019-02-07T01:08:44.161Z,35.68
2019-02-07T01:09:49.636Z,33.45
2019-02-07T01:10:54.668Z,31.45
2019-02-07T01:11:59.690Z,33.30
2019-02-07T01:13:05.016Z,35.30
2019-02-07T01:14:10.163Z,33.90
2019-02-07T01:15:15.836Z,37.20
2019-02-07T01:16:20.846Z,34.95
2019-02-07T01:17:26.180Z,37.00
2019-02-07T01:18:32.660Z,35.55
2019-02-07T01:19:39.696Z,34.65
2019-02-07T01:20:44.805Z,31.85
2019-02-07T01:21:49.803Z,35.75
2019-02-07T01:22:55.815Z,33.80
2019-02-07T01:24:00.953Z,34.00
2019-02-07T01:25:08.563Z,35.63
2019-02-07T01:26:14.505Z,37.08
2019-02-07T01:27:19.761Z,35.63
2019-02-07T01:28:25.153Z,33.40
2019-02-07T01:29:30.146Z,33.13
2019-02-07T01:30:35.150Z,34.75
2019-02-07T01:31:40.236Z,34.95
2019-02-07T01:32:45.421Z,35.83
2019-02-07T01:33:50.532Z,35.43
2019-02-07T01:34:55.543Z,32.60
2019-02-07T01:36:00.676Z,31.33
2019-02-07T01:37:05.837Z,33.53
2019-02-07T01:38:10.852Z,31.42
2019-02-07T01:39:15.912Z,35.33
2019-02-07T01:40:21.257Z,37.63
2019-02-07T01:41:26.363Z,33.83
2019-02-07T01:42:31.360Z,34.90
2019-02-07T01:43:36.385Z,34.40
2019-02-07T01:44:41.493Z,32.03
2019-02-07T01:45:46.599Z,32.83
2019-02-07T01:46:52.069Z,35.03
2019-02-07T01:47:57.426Z,32.45
2019-02-07T01:49:03.208Z,32.42
2019-02-07T01:50:10.409Z,34.08
2019-02-07T01:51:15.412Z,36.38
2019-02-07T01:52:20.440Z,36.90
2019-02-07T01:53:25.514Z,34.95
2019-02-07T01:54:30.517Z,32.73
2019-02-07T01:55:35.658Z,33.70
2019-02-07T01:56:40.763Z,34.58
2019-02-07T01:57:45.865Z,33.30
2019-02-07T01:58:50.887Z,31.48
2019-02-07T01:59:56.141Z,30.68
2019-02-07T02:01:01.147Z,34.55
2019-02-07T02:02:06.312Z,35.88
2019-02-07T02:03:11.309Z,34.27
2019-02-07T02:04:17.515Z,34.35
2019-02-07T02:05:22.612Z,35.92
2019-02-07T02:06:27.624Z,30.32
2019-02-07T02:07:33.087Z,30.95
2019-02-07T02:08:38.447Z,34.85
2019-02-07T02:09:43.568Z,33.42
2019-02-07T02:10:48.672Z,34.30
2019-02-07T02:11:53.665Z,35.88
2019-02-07T02:12:58.876Z,32.28
2019-02-07T02:14:04.301Z,33.88
2019-02-07T02:15:09.699Z,36.45
2019-02-07T02:16:14.722Z,37.40
2019-02-07T02:17:19.229Z,33.80
2019-02-07T02:18:36.141Z,34.38
2019-02-07T02:19:52.805Z,32.98
2019-02-07T02:21:09.427Z,36.23
2019-02-07T02:22:25.978Z,30.92
2019-02-07T02:23:43.338Z,35.05
2019-02-07T02:24:59.696Z,32.78
2019-02-07T02:26:16.253Z,34.92
2019-02-07T02:27:32.792Z,34.85
2019-02-07T02:28:49.311Z,33.30
2019-02-07T02:30:06.915Z,31.52
2019-02-07T02:31:24.128Z,33.63
2019-02-07T02:32:40.745Z,32.38
2019-02-07T02:33:57.342Z,34.27
2019-02-07T02:35:13.936Z,32.08
2019-02-07T02:36:30.904Z,33.58
2019-02-07T02:37:48.073Z,31.73
2019-02-07T02:39:04.671Z,36.25
2019-02-07T02:40:23.162Z,33.05
2019-02-07T02:41:39.670Z,35.40
2019-02-07T02:42:56.871Z,31.25
2019-02-07T02:44:13.953Z,33.10
2019-02-07T02:45:37.418Z,34.83
2019-02-07T02:46:49.312Z,37.05
2019-02-07T02:48:05.595Z,33.95
2019-02-07T02:49:22.795Z,32.75
2019-02-07T02:50:39.210Z,32.13
2019-02-07T02:51:55.665Z,35.28
2019-02-07T02:53:12.108Z,34.90
2019-02-07T02:56:49.159Z,35.95
2019-02-07T02:58:05.421Z,40.45
2019-02-07T03:01:30.038Z,32.70
2019-02-07T03:03:05.354Z,31.62
2019-02-07T03:04:31.462Z,31.35
2019-02-07T03:06:07.391Z,35.00
2019-02-07T03:07:42.894Z,32.50
2019-02-07T03:09:18.285Z,34.60
2019-02-07T03:10:53.781Z,32.58
2019-02-07T03:12:29.108Z,31.10
2019-02-07T03:14:04.470Z,32.53
2019-02-07T03:17:06.444Z,34.25
2019-02-07T03:18:37.796Z,34.83
2019-02-07T03:20:13.679Z,36.88
2019-02-07T03:21:40.652Z,34.83
2019-02-07T03:23:16.070Z,31.42
2019-02-07T03:24:52.286Z,34.45
2019-02-07T03:26:27.624Z,34.85
2019-02-07T03:28:03.076Z,33.20
2019-02-07T03:30:00.268Z,30.82
2019-02-07T03:31:37.881Z,32.98
2019-02-07T03:33:13.162Z,35.28
2019-02-07T03:34:48.719Z,35.17
2019-02-07T03:36:24.251Z,33.20
2019-02-07T03:37:54.588Z,34.25
2019-02-07T03:39:18.585Z,31.15
2019-02-07T03:40:54.286Z,31.97
2019-02-07T03:42:36.312Z,33.38
2019-02-07T03:44:11.649Z,32.93
2019-02-07T03:45:40.447Z,35.60
2019-02-07T03:47:15.809Z,34.67
2019-02-07T03:48:41.482Z,33.38
2019-02-07T03:50:40.962Z,35.40
2019-02-07T03:52:15.578Z,36.98
2019-02-07T03:53:52.259Z,37.30
2019-02-07T03:55:23.097Z,33.67
2019-02-07T03:56:58.338Z,35.35
2019-02-07T03:58:33.633Z,35.45
2019-02-07T04:00:09.918Z,34.65
2019-02-07T04:01:42.205Z,34.45
2019-02-07T04:03:18.394Z,35.05
2019-02-07T04:04:53.858Z,36.05
2019-02-07T04:06:29.205Z,34.20
2019-02-07T04:08:05.906Z,34.00
2019-02-07T04:10:02.896Z,31.07
2019-02-07T04:11:39.097Z,35.33
2019-02-07T04:13:15.442Z,36.33
2019-02-07T04:14:50.687Z,33.92
2019-02-07T04:16:26.008Z,33.60
2019-02-07T04:18:07.598Z,36.00
2019-02-07T04:19:43.042Z,33.53
2019-02-07T04:21:18.523Z,35.35
2019-02-07T04:23:01.629Z,31.65
2019-02-07T04:24:38.291Z,35.73
2019-02-07T04:26:14.430Z,27.05
2019-02-07T04:27:50.084Z,33.30
2019-02-07T04:29:22.575Z,33.55
2019-02-07T04:30:51.163Z,35.13
2019-02-07T04:32:27.247Z,35.88
2019-02-07T04:34:02.486Z,34.60
2019-02-07T04:35:41.513Z,34.20
2019-02-07T04:37:41.049Z,33.58
2019-02-07T04:39:17.147Z,32.83
2019-02-07T04:40:45.313Z,35.05
2019-02-07T04:42:21.213Z,32.17
2019-02-07T04:43:47.100Z,27.60
2019-02-07T04:44:59.489Z,31.30
2019-02-07T04:46:41.989Z,32.95
2019-02-07T04:48:06.049Z,31.37
2019-02-07T04:49:20.716Z,34.53
2019-02-07T04:50:43.484Z,31.65
2019-02-07T04:52:10.452Z,29.98
2019-02-07T04:53:40.405Z,31.80
2019-02-07T04:55:13.731Z,30.57
2019-02-07T04:56:36.926Z,30.12
2019-02-07T04:57:56.938Z,30.97
2019-02-07T04:59:19.958Z,30.25
2019-02-07T05:00:45.572Z,30.72
2019-02-07T05:02:08.230Z,27.22
2019-02-07T05:03:26.006Z,30.12
2019-02-07T05:05:00.295Z,29.98
2019-02-07T05:06:21.570Z,29.60
2019-02-07T05:07:44.331Z,29.70
2019-02-07T05:09:07.377Z,31.17
2019-02-07T05:10:37.795Z,27.35
2019-02-07T05:12:01.835Z,31.30
2019-02-07T05:13:35.785Z,28.10
2019-02-07T05:14:49.585Z,32.00
2019-02-07T05:16:39.280Z,30.08
2019-02-07T05:17:57.533Z,30.95
2019-02-07T05:19:18.682Z,27.32
2019-02-07T05:21:01.341Z,29.52
2019-02-07T05:22:33.756Z,29.37
2019-02-07T05:24:03.861Z,28.62
2019-02-07T05:25:27.677Z,28.95
2019-02-07T05:26:42.370Z,29.72
2019-02-07T05:28:05.294Z,28.47
2019-02-07T05:29:27.133Z,29.50
2019-02-07T05:30:58.899Z,28.52
2019-02-07T05:32:22.072Z,27.80
2019-02-07T05:33:49.160Z,29.52
2019-02-07T05:35:16.217Z,27.75
2019-02-07T05:36:58.711Z,27.80
2019-02-07T05:38:37.662Z,29.80
2019-02-07T05:39:50.150Z,29.15
2019-02-07T05:41:16.840Z,28.70
2019-02-07T05:42:39.633Z,26.62
2019-02-07T05:44:02.339Z,30.60
2019-02-07T05:45:25.644Z,26.27
2019-02-07T05:46:52.487Z,28.65
2019-02-07T05:48:23.878Z,29.85
2019-02-07T05:49:56.160Z,24.95
2019-02-07T05:51:19.192Z,27.27
2019-02-07T05:52:41.642Z,27.35
2019-02-07T05:54:17.920Z,29.92
2019-02-07T05:55:40.649Z,27.40
2019-02-07T05:57:06.084Z,28.23
2019-02-07T05:58:39.554Z,25.65
2019-02-07T06:00:02.804Z,28.42
2019-02-07T06:01:39.422Z,26.85
2019-02-07T06:03:12.629Z,27.55
2019-02-07T06:04:35.349Z,25.90
2019-02-07T06:05:58.293Z,26.07
2019-02-07T06:07:37.467Z,27.22
2019-02-07T06:09:01.932Z,25.20
2019-02-07T06:10:38.281Z,24.07
2019-02-07T06:12:20.774Z,26.57
2019-02-07T06:13:43.686Z,27.35
2019-02-07T06:15:10.805Z,28.40
2019-02-07T06:16:47.371Z,27.75
2019-02-07T06:18:16.623Z,25.88
2019-02-07T06:19:32.262Z,27.20
2019-02-07T06:20:51.774Z,25.57
2019-02-07T06:22:14.794Z,23.85
2019-02-07T06:23:41.671Z,22.77
2019-02-07T06:25:13.595Z,24.85
2019-02-07T06:26:40.912Z,26.33
2019-02-07T06:28:05.226Z,28.98
2019-02-07T06:29:47.952Z,26.87
2019-02-07T06:31:17.876Z,31.35
2019-02-07T06:32:53.940Z,28.40
2019-02-07T06:34:28.999Z,25.02
2019-02-07T06:35:40.693Z,25.35
2019-02-07T06:37:10.894Z,23.55
2019-02-07T06:38:44.502Z,23.85
2019-02-07T06:40:14.586Z,26.15
2019-02-07T06:41:31.385Z,26.15
2019-02-07T06:43:04.572Z,25.15
2019-02-07T06:44:17.215Z,24.05
2019-02-07T06:45:44.509Z,22.80
2019-02-07T06:47:17.648Z,22.90
2019-02-07T06:48:44.513Z,25.62
2019-02-07T06:50:05.086Z,25.88
2019-02-07T06:51:27.068Z,24.65
2019-02-07T06:52:53.936Z,25.50
2019-02-07T06:54:17.773Z,26.87
2019-02-07T06:55:33.441Z,23.02
2019-02-07T06:57:00.689Z,24.63
2019-02-07T06:58:30.434Z,25.10
2019-02-07T06:59:53.150Z,26.27
2019-02-07T07:01:20.641Z,25.12
2019-02-07T07:02:47.840Z,23.70
2019-02-07T07:04:14.873Z,23.77
2019-02-07T07:05:42.021Z,24.23
2019-02-07T07:06:59.667Z,24.35
2019-02-07T07:08:42.421Z,26.80
2019-02-07T07:10:06.529Z,25.72
2019-02-07T07:11:24.135Z,27.65
2019-02-07T07:12:46.933Z,24.80
2019-02-07T07:14:01.028Z,24.05
2019-02-07T07:15:22.827Z,25.35
2019-02-07T07:16:34.637Z,24.40
2019-02-07T07:17:58.742Z,21.75
2019-02-07T07:19:22.800Z,27.35
2019-02-07T07:20:38.241Z,24.43
2019-02-07T07:22:08.640Z,25.10
2019-02-07T07:23:45.077Z,25.70
2019-02-07T07:25:14.623Z,24.15
2019-02-07T07:26:47.713Z,22.35
2019-02-07T07:28:06.471Z,22.82
2019-02-07T07:29:33.367Z,24.12
2019-02-07T07:31:00.387Z,22.85
2019-02-07T07:32:25.505Z,29.92
2019-02-07T07:33:48.890Z,43.78
2019-02-07T07:35:11.828Z,24.60
2019-02-07T07:36:28.521Z,21.37
2019-02-07T07:37:58.656Z,23.57
2019-02-07T07:39:27.541Z,20.25
2019-02-07T07:40:47.388Z,21.17
2019-02-07T07:42:14.448Z,23.25
2019-02-07T07:43:41.300Z,21.50
2019-02-07T07:45:05.469Z,24.27
2019-02-07T07:46:33.335Z,21.75
2019-02-07T07:47:56.310Z,25.12
2019-02-07T07:49:19.073Z,22.35
2019-02-07T07:50:46.437Z,23.22
2019-02-07T07:52:10.939Z,22.60
2019-02-07T07:53:31.809Z,22.67
2019-02-07T07:54:54.832Z,20.75
2019-02-07T07:56:17.802Z,22.00
2019-02-07T07:57:40.784Z,20.85
2019-02-07T07:59:17.537Z,22.13
2019-02-07T08:01:00.052Z,23.70
2019-02-07T08:02:36.433Z,20.62
2019-02-07T08:04:00.484Z,28.70
2019-02-07T08:05:15.890Z,21.97
2019-02-07T08:06:30.242Z,26.85
2019-02-07T08:07:53.378Z,20.62
2019-02-07T08:09:29.606Z,22.65
2019-02-07T08:10:53.918Z,23.00
2019-02-07T08:12:15.876Z,22.25
2019-02-07T08:13:35.623Z,20.80
2019-02-07T08:15:03.904Z,22.77
2019-02-07T08:16:32.244Z,20.72
2019-02-07T08:18:08.608Z,20.62
2019-02-07T08:19:35.766Z,20.23
2019-02-07T08:20:59.197Z,19.10
2019-02-07T08:22:32.563Z,20.45
2019-02-07T08:23:55.254Z,22.65
2019-02-07T08:25:23.214Z,21.65
2019-02-07T08:26:53.916Z,25.05
2019-02-07T08:28:17.200Z,18.73
2019-02-07T08:29:40.056Z,22.00
2019-02-07T08:31:10.584Z,22.27
2019-02-07T08:32:37.741Z,22.27
2019-02-07T08:34:20.175Z,20.60
2019-02-07T08:35:42.981Z,19.25
2019-02-07T08:37:12.785Z,23.07
2019-02-07T08:38:35.701Z,22.67
2019-02-07T08:40:05.740Z,23.85
2019-02-07T08:41:29.156Z,23.62
2019-02-07T08:42:59.000Z,20.57
2019-02-07T08:44:15.356Z,20.50
2019-02-07T08:45:48.720Z,22.27
2019-02-07T08:47:12.211Z,21.97
2019-02-07T08:48:25.730Z,24.92
2019-02-07T08:49:50.711Z,23.73
2019-02-07T08:51:05.042Z,19.70
2019-02-07T08:52:39.600Z,21.17
2019-02-07T08:54:06.696Z,19.62
2019-02-07T08:55:29.402Z,21.87
2019-02-07T08:56:47.825Z,22.00
2019-02-07T08:58:09.333Z,22.22
2019-02-07T08:59:36.422Z,25.12
2019-02-07T09:01:00.869Z,24.80
2019-02-07T09:02:23.407Z,21.68
2019-02-07T09:03:38.536Z,18.87
2019-02-07T09:04:59.168Z,21.42
2019-02-07T09:06:23.498Z,20.20
2019-02-07T09:08:02.980Z,19.52
2019-02-07T09:09:29.819Z,19.67
2019-02-07T09:10:56.666Z,23.10
2019-02-07T09:12:18.574Z,22.82
2019-02-07T09:13:41.289Z,21.45
2019-02-07T09:15:12.619Z,27.22
2019-02-07T09:16:29.885Z,22.87
2019-02-07T09:18:11.397Z,27.20
2019-02-07T09:19:30.894Z,26.75
2019-02-07T09:20:54.997Z,32.50
2019-02-07T09:22:24.421Z,28.10
2019-02-07T09:23:48.473Z,25.95
2019-02-07T09:25:18.774Z,22.00
2019-02-07T09:26:51.841Z,20.62
2019-02-07T09:28:28.002Z,19.05
2019-02-07T09:30:10.163Z,20.43
2019-02-07T09:31:43.325Z,20.20
2019-02-07T09:33:16.941Z,21.23
2019-02-07T09:34:42.012Z,18.70
2019-02-07T09:36:05.731Z,21.37
2019-02-07T09:37:33.145Z,19.70
2019-02-07T09:38:57.233Z,21.52
2019-02-07T09:40:27.322Z,20.75
2019-02-07T09:41:54.403Z,19.35
2019-02-07T09:43:36.902Z,20.30
2019-02-07T09:44:58.013Z,20.65
2019-02-07T09:46:15.564Z,24.40
2019-02-07T09:47:35.028Z,22.60
2019-02-07T09:48:58.443Z,19.70
2019-02-07T09:50:31.740Z,19.85
2019-02-07T09:51:51.953Z,21.25
2019-02-07T09:53:23.730Z,19.40
2019-02-07T09:54:40.615Z,21.42
2019-02-07T09:56:03.401Z,19.10
2019-02-07T09:57:26.289Z,18.77
2019-02-07T09:59:03.393Z,24.23
2019-02-07T10:00:22.143Z,17.00
2019-02-07T10:01:46.278Z,18.45
2019-02-07T10:03:04.454Z,20.57
2019-02-07T10:04:28.642Z,17.30
2019-02-07T10:05:52.047Z,18.07
2019-02-07T10:07:14.768Z,18.27
2019-02-07T10:08:38.915Z,22.45
2019-02-07T10:10:05.945Z,15.90
2019-02-07T10:11:28.940Z,20.20
2019-02-07T10:13:05.105Z,19.23
2019-02-07T10:14:35.534Z,21.48
2019-02-07T10:16:00.028Z,23.95
2019-02-07T10:17:27.392Z,19.23
2019-02-07T10:19:00.697Z,18.12
2019-02-07T10:20:22.262Z,19.45
2019-02-07T10:21:55.447Z,16.32
2019-02-07T10:23:20.100Z,19.45
2019-02-07T10:24:44.168Z,21.55
2019-02-07T10:26:08.239Z,19.23
2019-02-07T10:27:35.359Z,20.75
2019-02-07T10:29:14.810Z,23.25
2019-02-07T10:30:33.456Z,25.08
2019-02-07T10:32:12.540Z,21.40
2019-02-07T10:33:35.458Z,19.55
2019-02-07T10:34:59.488Z,22.02
2019-02-07T10:36:22.342Z,19.27
2019-02-07T10:37:42.742Z,16.40
2019-02-07T10:38:56.152Z,18.82
2019-02-07T10:40:26.278Z,19.48
2019-02-07T10:41:50.436Z,20.43
2019-02-07T10:43:04.871Z,20.60
2019-02-07T10:44:40.113Z,19.75
2019-02-07T10:46:15.522Z,21.02
2019-02-07T10:47:51.013Z,21.68
2019-02-07T10:49:26.306Z,22.02
2019-02-07T10:51:02.508Z,23.40
2019-02-07T10:52:40.168Z,23.15
2019-02-07T10:54:35.810Z,23.57
2019-02-07T10:56:11.109Z,18.45
2019-02-07T10:57:46.602Z,23.80
2019-02-07T10:59:15.776Z,20.12
2019-02-07T11:00:51.107Z,20.88
2019-02-07T11:02:32.605Z,20.08
2019-02-07T11:04:12.704Z,21.25
2019-02-07T11:05:55.818Z,19.02
2019-02-07T11:07:28.294Z,19.05
2019-02-07T11:08:58.766Z,22.10
2019-02-07T11:10:34.837Z,18.85
2019-02-07T11:12:13.948Z,19.23
2019-02-07T11:13:52.521Z,24.02
2019-02-07T11:15:55.333Z,23.22
2019-02-07T11:17:31.364Z,24.27
2019-02-07T11:19:06.836Z,19.75
2019-02-07T11:20:44.282Z,23.32
2019-02-07T11:22:19.795Z,18.17
2019-02-07T11:23:58.275Z,21.40
2019-02-07T11:25:37.047Z,19.52
2019-02-07T11:27:32.214Z,22.30
2019-02-07T11:29:00.807Z,22.60
2019-02-07T11:30:38.537Z,22.55
2019-02-07T11:32:17.031Z,20.60
2019-02-07T11:33:39.956Z,18.90
2019-02-07T11:35:02.939Z,20.90
2019-02-07T11:36:26.177Z,24.65
2019-02-07T11:37:43.214Z,19.98
2019-02-07T11:39:05.236Z,21.23
2019-02-07T11:40:38.239Z,21.77
2019-02-07T11:42:10.322Z,20.70
2019-02-07T11:43:42.545Z,21.33
2019-02-07T11:45:18.979Z,18.98
2019-02-07T11:46:42.521Z,21.35
2019-02-07T11:48:16.141Z,23.20
2019-02-07T11:49:40.486Z,23.55
2019-02-07T11:51:02.472Z,21.80
2019-02-07T11:52:34.336Z,20.90
2019-02-07T11:53:56.986Z,38.55
2019-02-07T11:55:16.025Z,24.18
2019-02-07T11:56:38.908Z,23.62
2019-02-07T11:58:11.805Z,22.62
2019-02-07T11:59:46.560Z,27.30
2019-02-07T12:01:07.145Z,24.40
2019-02-07T12:02:37.753Z,22.55
2019-02-07T12:04:11.357Z,22.87
2019-02-07T12:05:38.260Z,26.23
2019-02-07T12:06:58.164Z,23.60
2019-02-07T12:08:19.278Z,25.40
2019-02-07T12:10:02.453Z,29.05
2019-02-07T12:11:28.081Z,28.80
2019-02-07T12:12:51.548Z,26.73
2019-02-07T12:14:15.762Z,22.05
2019-02-07T12:15:39.908Z,21.77
2019-02-07T12:17:02.707Z,22.67
2019-02-07T12:18:26.632Z,23.73
2019-02-07T12:20:00.817Z,21.75
2019-02-07T12:21:32.391Z,26.95
2019-02-07T12:22:59.928Z,23.83
2019-02-07T12:24:23.263Z,21.23
2019-02-07T12:25:48.033Z,22.80
2019-02-07T12:27:30.428Z,24.47
2019-02-07T12:28:53.389Z,23.30
2019-02-07T12:30:26.748Z,24.57
2019-02-07T12:31:50.830Z,21.93
2019-02-07T12:33:19.018Z,21.80
2019-02-07T12:34:49.101Z,24.63
2019-02-07T12:36:15.932Z,27.55
2019-02-07T12:37:38.752Z,24.70
2019-02-07T12:39:06.462Z,19.95
2019-02-07T12:40:23.044Z,20.60
2019-02-07T12:41:45.592Z,22.45
2019-02-07T12:43:06.208Z,22.58
2019-02-07T12:44:29.644Z,20.27
2019-02-07T12:45:57.186Z,23.70
2019-02-07T12:47:22.287Z,22.07
2019-02-07T12:48:45.159Z,22.20
2019-02-07T12:50:07.837Z,22.13
2019-02-07T12:51:31.969Z,20.70
2019-02-07T12:53:03.642Z,22.87
2019-02-07T12:54:34.779Z,21.00
2019-02-07T12:56:04.712Z,20.75
2019-02-07T12:57:28.794Z,21.30
2019-02-07T12:58:53.501Z,20.48
2019-02-07T13:00:26.413Z,20.25
2019-02-07T13:01:42.564Z,19.60
2019-02-07T13:03:06.268Z,20.50
2019-02-07T13:04:38.786Z,23.90
2019-02-07T13:06:08.491Z,21.35
2019-02-07T13:07:35.662Z,22.70
2019-02-07T13:08:58.472Z,20.65
2019-02-07T13:10:23.891Z,23.73
2019-02-07T13:11:51.014Z,19.12
2019-02-07T13:13:14.338Z,21.23
2019-02-07T13:14:31.592Z,19.85
2019-02-07T13:15:54.304Z,21.00
2019-02-07T13:17:07.378Z,22.70
2019-02-07T13:18:37.296Z,19.98
2019-02-07T13:20:00.466Z,21.17
2019-02-07T13:21:18.864Z,17.67
2019-02-07T13:22:48.754Z,22.48
2019-02-07T13:24:11.977Z,23.07
2019-02-07T13:25:34.781Z,21.23
2019-02-07T13:26:58.649Z,25.10
2019-02-07T13:28:21.398Z,20.68
2019-02-07T13:29:44.066Z,25.60
2019-02-07T13:31:26.419Z,20.80
2019-02-07T13:32:50.047Z,19.48
2019-02-07T13:34:12.932Z,23.52
2019-02-07T13:35:35.920Z,23.32
2019-02-07T13:36:58.687Z,23.62
2019-02-07T13:38:13.637Z,22.30
2019-02-07T13:39:53.334Z,24.72
2019-02-07T13:41:16.485Z,42.55
2019-02-07T13:42:46.545Z,23.70
2019-02-07T13:44:17.050Z,22.13
2019-02-07T13:45:47.154Z,22.85
2019-02-07T13:47:09.876Z,21.60
2019-02-07T13:48:42.991Z,19.48
2019-02-07T13:50:07.150Z,24.98
2019-02-07T13:51:40.618Z,22.20
2019-02-07T13:52:58.498Z,19.82
2019-02-07T13:54:25.296Z,19.45
2019-02-07T13:55:45.892Z,19.42
2019-02-07T13:57:16.114Z,20.72
2019-02-07T13:58:43.188Z,23.42
2019-02-07T14:00:06.305Z,20.23
2019-02-07T14:01:23.019Z,19.10
2019-02-07T14:02:52.953Z,22.55
2019-02-07T14:04:15.979Z,18.77
2019-02-07T14:05:53.331Z,22.65
2019-02-07T14:07:17.728Z,19.48
2019-02-07T14:08:39.470Z,19.40
2019-02-07T14:10:09.696Z,22.17
2019-02-07T14:11:43.130Z,18.87
2019-02-07T14:13:06.226Z,20.45
2019-02-07T14:14:39.146Z,18.27
2019-02-07T14:16:02.496Z,25.27
2019-02-07T14:17:41.672Z,21.75
2019-02-07T14:19:03.936Z,22.07
2019-02-07T14:20:26.771Z,21.87
2019-02-07T14:21:49.491Z,21.82
2019-02-07T14:23:14.618Z,21.52
2019-02-07T14:24:45.859Z,21.93
2019-02-07T14:26:09.998Z,21.57
2019-02-07T14:27:40.126Z,20.60
2019-02-07T14:29:02.505Z,25.08
2019-02-07T14:30:36.736Z,21.65
2019-02-07T14:31:59.515Z,19.77
2019-02-07T14:33:09.908Z,21.25
2019-02-07T14:34:33.996Z,21.75
2019-02-07T14:35:51.296Z,23.83
2019-02-07T14:37:14.214Z,21.68
2019-02-07T14:38:37.012Z,24.72
2019-02-07T14:40:03.846Z,20.75
2019-02-07T14:41:29.824Z,20.90
2019-02-07T14:42:45.408Z,20.55
2019-02-07T14:44:08.073Z,20.65
2019-02-07T14:45:44.948Z,21.90
2019-02-07T14:46:50.042Z,22.60
2019-02-07T14:47:55.161Z,23.25
2019-02-07T14:49:00.279Z,23.47
2019-02-07T14:50:14.573Z,23.10
2019-02-07T14:51:12.886Z,25.23
2019-02-07T14:52:18.074Z,27.93
2019-02-07T14:53:23.172Z,24.37
2019-02-07T14:54:28.364Z,31.42
2019-02-07T14:55:33.490Z,23.20
2019-02-07T14:56:38.768Z,26.40
2019-02-07T14:57:43.890Z,32.90
2019-02-07T14:58:49.015Z,27.80
2019-02-07T14:59:55.192Z,28.38
2019-02-07T15:01:00.318Z,28.52
2019-02-07T15:02:05.774Z,25.30
2019-02-07T15:03:11.276Z,26.85
2019-02-07T15:04:16.382Z,27.07
2019-02-07T15:05:21.561Z,26.75
2019-02-07T15:06:26.778Z,27.93
2019-02-07T15:07:31.887Z,27.37
2019-02-07T15:08:36.989Z,24.40
2019-02-07T15:09:42.133Z,28.00
2019-02-07T15:10:47.237Z,36.58
2019-02-07T15:11:52.361Z,36.90
2019-02-07T15:12:57.459Z,42.13
2019-02-07T15:14:02.619Z,44.23
2019-02-07T15:15:09.914Z,45.50
2019-02-07T15:16:15.104Z,34.60
2019-02-07T15:17:20.208Z,24.37
2019-02-07T15:18:25.323Z,29.40
2019-02-07T15:19:31.508Z,23.70
2019-02-07T15:20:36.640Z,26.07
2019-02-07T15:21:41.825Z,25.10
2019-02-07T15:22:47.100Z,22.37
2019-02-07T15:23:52.825Z,21.97
2019-02-07T15:24:57.985Z,26.40
2019-02-07T15:26:03.087Z,25.50
2019-02-07T15:27:09.255Z,25.08
2019-02-07T15:28:14.369Z,22.82
2019-02-07T15:29:22.186Z,26.00
2019-02-07T15:30:26.384Z,25.30
2019-02-07T15:31:31.497Z,27.05
2019-02-07T15:32:36.636Z,25.30
2019-02-07T15:33:41.661Z,27.77
2019-02-07T15:34:46.778Z,27.75
2019-02-07T15:35:52.403Z,30.88
2019-02-07T15:36:57.537Z,27.20
2019-02-07T15:38:02.656Z,28.90
2019-02-07T15:39:11.516Z,26.75
2019-02-07T15:40:18.454Z,26.42
2019-02-07T15:41:23.533Z,26.10
2019-02-07T15:42:28.599Z,24.55
2019-02-07T15:43:33.658Z,28.62
2019-02-07T15:44:39.139Z,27.48
2019-02-07T15:45:44.604Z,24.07
2019-02-07T15:46:49.712Z,29.32
2019-02-07T15:47:55.096Z,28.90
2019-02-07T15:49:00.215Z,27.77
2019-02-07T15:50:10.094Z,28.47
2019-02-07T15:51:15.562Z,27.30
2019-02-07T15:52:20.652Z,25.40
2019-02-07T15:53:25.814Z,26.73
2019-02-07T15:54:30.933Z,29.32
2019-02-07T15:55:36.140Z,24.55
2019-02-07T15:56:41.254Z,22.05
2019-02-07T15:57:46.339Z,25.37
2019-02-07T15:59:14.438Z,26.65
2019-02-07T16:00:52.377Z,23.57
2019-02-07T16:02:15.076Z,24.57
2019-02-07T16:03:39.188Z,23.15
2019-02-07T16:04:45.772Z,26.85
2019-02-07T16:05:50.932Z,26.70
2019-02-07T16:06:55.988Z,21.87
2019-02-07T16:08:01.091Z,25.70
2019-02-07T16:09:07.932Z,24.50
2019-02-07T16:10:17.079Z,29.52
2019-02-07T16:11:22.329Z,25.65
2019-02-07T16:12:27.447Z,21.75
2019-02-07T16:13:32.657Z,24.65
2019-02-07T16:14:37.798Z,23.50
2019-02-07T16:15:42.898Z,26.93
2019-02-07T16:16:48.288Z,29.63
2019-02-07T16:17:53.709Z,25.92
2019-02-07T16:18:58.844Z,27.25
2019-02-07T16:20:04.710Z,29.10
2019-02-07T16:21:09.816Z,26.17
2019-02-07T16:22:14.926Z,29.57
2019-02-07T16:23:20.065Z,25.72
2019-02-07T16:24:25.359Z,27.00
2019-02-07T16:25:30.620Z,29.05
2019-02-07T16:26:35.763Z,27.48
2019-02-07T16:27:41.029Z,30.82
2019-02-07T16:28:46.141Z,31.55
2019-02-07T16:29:51.341Z,30.00
2019-02-07T16:30:56.391Z,28.75
2019-02-07T16:32:01.801Z,24.70
2019-02-07T16:33:08.129Z,31.70
2019-02-07T16:34:13.372Z,29.82
2019-02-07T16:35:18.896Z,24.52
2019-02-07T16:36:24.134Z,27.98
2019-02-07T16:37:30.519Z,27.98
2019-02-07T16:38:36.123Z,26.85
2019-02-07T16:39:41.648Z,26.35
2019-02-07T16:40:46.753Z,26.93
2019-02-07T16:41:51.860Z,26.52
2019-02-07T16:42:57.345Z,26.23
2019-02-07T16:44:02.722Z,22.02
2019-02-07T16:45:10.385Z,23.02
2019-02-07T16:46:15.509Z,25.52
2019-02-07T16:47:20.605Z,23.42
2019-02-07T16:48:25.805Z,27.22
2019-02-07T16:49:30.911Z,23.38
2019-02-07T16:50:36.250Z,21.37
2019-02-07T16:51:41.428Z,23.47
2019-02-07T16:52:46.552Z,22.62
2019-02-07T16:53:51.706Z,22.87
2019-02-07T16:54:56.860Z,22.75
2019-02-07T16:56:01.943Z,26.50
2019-02-07T16:57:06.965Z,26.52
2019-02-07T16:58:12.040Z,27.05
2019-02-07T16:59:17.725Z,26.62
2019-02-07T17:00:25.285Z,23.18
2019-02-07T17:01:30.807Z,26.57
2019-02-07T17:02:35.860Z,24.90
2019-02-07T17:03:41.396Z,25.37
2019-02-07T17:04:46.504Z,25.00
2019-02-07T17:05:51.669Z,23.87
2019-02-07T17:06:56.777Z,23.27
2019-02-07T17:08:01.949Z,21.40
2019-02-07T17:09:17.962Z,21.37
2019-02-07T17:10:25.956Z,27.13
2019-02-07T17:11:31.077Z,25.15
2019-02-07T17:12:36.274Z,27.15
2019-02-07T17:13:41.444Z,28.87
2019-02-07T17:14:46.574Z,26.62
2019-02-07T17:15:51.685Z,25.97
2019-02-07T17:16:56.837Z,33.60
2019-02-07T17:18:01.956Z,26.75